sensor_id;sensor_type;location;lat;lon;timestamp;pressure;altitude;pressure_sealevel;temperature;humidity
79577;BME280;69045;48.136;11.386;2023-06-22T00:00:37;95391.41;;;25.12;56.34
79577;BME280;69045;48.136;11.386;2023-06-22T00:03:07;95390.66;;;24.97;56.22
79577;BME280;69045;48.136;11.386;2023-06-22T00:05:35;95389.66;;;25.07;56.23
79577;BME280;69045;48.136;11.386;2023-06-22T00:08:04;95376.09;;;25.12;55.79
79577;BME280;69045;48.136;11.386;2023-06-22T00:10:32;95385.56;;;25.10;56.11
79577;BME280;69045;48.136;11.386;2023-06-22T00:13:01;95385.75;;;25.13;55.70
79577;BME280;69045;48.136;11.386;2023-06-22T00:15:29;95375.69;;;25.19;55.81
79577;BME280;69045;48.136;11.386;2023-06-22T00:17:57;95380.09;;;25.15;55.52
79577;BME280;69045;48.136;11.386;2023-06-22T00:20:27;95380.56;;;25.17;55.84
79577;BME280;69045;48.136;11.386;2023-06-22T00:22:58;95382.25;;;25.13;56.01
79577;BME280;69045;48.136;11.386;2023-06-22T00:25:27;95384.94;;;25.13;56.00
79577;BME280;69045;48.136;11.386;2023-06-22T00:27:55;95386.03;;;25.12;55.64
79577;BME280;69045;48.136;11.386;2023-06-22T00:30:23;95381.25;;;25.00;55.92
79577;BME280;69045;48.136;11.386;2023-06-22T00:32:51;95379.47;;;24.73;57.04
79577;BME280;69045;48.136;11.386;2023-06-22T00:35:19;95386.47;;;24.60;57.08
79577;BME280;69045;48.136;11.386;2023-06-22T00:37:49;95382.22;;;24.59;57.14
79577;BME280;69045;48.136;11.386;2023-06-22T00:40:20;95374.72;;;24.70;57.07
79577;BME280;69045;48.136;11.386;2023-06-22T00:42:48;95378.25;;;24.79;56.73
79577;BME280;69045;48.136;11.386;2023-06-22T00:45:17;95381.06;;;24.74;56.76
79577;BME280;69045;48.136;11.386;2023-06-22T00:47:45;95381.19;;;24.69;56.87
79577;BME280;69045;48.136;11.386;2023-06-22T00:50:19;95374.09;;;24.50;57.41
79577;BME280;69045;48.136;11.386;2023-06-22T00:52:51;95371.34;;;24.42;57.55
79577;BME280;69045;48.136;11.386;2023-06-22T00:55:20;95372.63;;;24.44;57.73
79577;BME280;69045;48.136;11.386;2023-06-22T00:57:49;95363.22;;;24.47;57.39
79577;BME280;69045;48.136;11.386;2023-06-22T01:00:24;95358.03;;;24.50;57.13
79577;BME280;69045;48.136;11.386;2023-06-22T01:02:53;95351.72;;;24.46;57.16
79577;BME280;69045;48.136;11.386;2023-06-22T01:05:22;95350.34;;;24.58;57.07
79577;BME280;69045;48.136;11.386;2023-06-22T01:08:02;95338.78;;;24.48;57.22
79577;BME280;69045;48.136;11.386;2023-06-22T01:10:40;95344.78;;;24.45;57.06
79577;BME280;69045;48.136;11.386;2023-06-22T01:13:18;95345.56;;;24.32;57.46
79577;BME280;69045;48.136;11.386;2023-06-22T01:15:55;95339.44;;;24.18;58.29
79577;BME280;69045;48.136;11.386;2023-06-22T01:18:28;95343.13;;;23.72;59.44
79577;BME280;69045;48.136;11.386;2023-06-22T01:21:00;95339.63;;;23.58;60.03
79577;BME280;69045;48.136;11.386;2023-06-22T01:23:42;95333.00;;;23.69;59.64
79577;BME280;69045;48.136;11.386;2023-06-22T01:26:20;95327.66;;;23.69;59.66
79577;BME280;69045;48.136;11.386;2023-06-22T01:28:53;95334.78;;;23.60;60.06
79577;BME280;69045;48.136;11.386;2023-06-22T01:31:24;95332.31;;;23.63;60.04
79577;BME280;69045;48.136;11.386;2023-06-22T01:33:55;95334.31;;;23.72;59.62
79577;BME280;69045;48.136;11.386;2023-06-22T01:36:26;95331.72;;;23.80;59.48
79577;BME280;69045;48.136;11.386;2023-06-22T01:38:57;95331.09;;;23.83;59.42
79577;BME280;69045;48.136;11.386;2023-06-22T01:41:29;95339.91;;;23.84;59.32
79577;BME280;69045;48.136;11.386;2023-06-22T01:44:00;95330.13;;;23.79;59.76
79577;BME280;69045;48.136;11.386;2023-06-22T01:46:29;95337.66;;;23.77;59.40
79577;BME280;69045;48.136;11.386;2023-06-22T01:48:57;95332.22;;;23.68;59.59
79577;BME280;69045;48.136;11.386;2023-06-22T01:51:26;95341.31;;;23.54;59.92
79577;BME280;69045;48.136;11.386;2023-06-22T01:53:55;95329.94;;;23.62;59.67
79577;BME280;69045;48.136;11.386;2023-06-22T01:56:23;95333.78;;;23.69;59.44
79577;BME280;69045;48.136;11.386;2023-06-22T01:59:03;95334.97;;;23.77;59.20
79577;BME280;69045;48.136;11.386;2023-06-22T02:01:41;95337.94;;;23.89;58.57
79577;BME280;69045;48.136;11.386;2023-06-22T02:04:13;95338.72;;;23.90;58.71
79577;BME280;69045;48.136;11.386;2023-06-22T02:06:53;95337.25;;;23.84;58.93
79577;BME280;69045;48.136;11.386;2023-06-22T02:09:25;95340.91;;;23.88;58.91
79577;BME280;69045;48.136;11.386;2023-06-22T02:11:58;95345.66;;;23.91;58.54
79577;BME280;69045;48.136;11.386;2023-06-22T02:14:29;95351.63;;;23.88;58.85
79577;BME280;69045;48.136;11.386;2023-06-22T02:16:58;95354.28;;;23.88;58.96
79577;BME280;69045;48.136;11.386;2023-06-22T02:19:27;95342.69;;;23.92;58.89
79577;BME280;69045;48.136;11.386;2023-06-22T02:22:00;95347.44;;;23.95;58.66
79577;BME280;69045;48.136;11.386;2023-06-22T02:24:28;95341.97;;;24.01;58.70
79577;BME280;69045;48.136;11.386;2023-06-22T02:26:59;95354.66;;;24.09;58.20
79577;BME280;69045;48.136;11.386;2023-06-22T02:29:28;95354.53;;;24.14;58.40
79577;BME280;69045;48.136;11.386;2023-06-22T02:31:57;95350.47;;;24.16;58.48
79577;BME280;69045;48.136;11.386;2023-06-22T02:34:25;95360.06;;;24.17;58.19
79577;BME280;69045;48.136;11.386;2023-06-22T02:36:53;95362.16;;;24.20;58.16
79577;BME280;69045;48.136;11.386;2023-06-22T02:39:23;95369.88;;;24.22;57.94
79577;BME280;69045;48.136;11.386;2023-06-22T02:41:53;95366.31;;;24.27;57.82
79577;BME280;69045;48.136;11.386;2023-06-22T02:44:22;95370.25;;;24.29;57.61
79577;BME280;69045;48.136;11.386;2023-06-22T02:46:52;95376.03;;;24.22;58.06
79577;BME280;69045;48.136;11.386;2023-06-22T02:49:21;95368.91;;;24.18;58.10
79577;BME280;69045;48.136;11.386;2023-06-22T02:51:49;95373.78;;;24.16;58.25
79577;BME280;69045;48.136;11.386;2023-06-22T02:54:20;95362.56;;;24.14;58.27
79577;BME280;69045;48.136;11.386;2023-06-22T02:56:51;95358.41;;;24.08;58.54
79577;BME280;69045;48.136;11.386;2023-06-22T02:59:20;95354.28;;;24.02;58.59
79577;BME280;69045;48.136;11.386;2023-06-22T03:01:58;95348.53;;;23.94;58.91
79577;BME280;69045;48.136;11.386;2023-06-22T03:04:29;95351.31;;;23.89;58.99
79577;BME280;69045;48.136;11.386;2023-06-22T03:06:58;95361.94;;;23.81;59.35
79577;BME280;69045;48.136;11.386;2023-06-22T03:09:30;95365.81;;;23.75;59.24
79577;BME280;69045;48.136;11.386;2023-06-22T03:11:58;95361.44;;;23.79;58.96
79577;BME280;69045;48.136;11.386;2023-06-22T03:14:35;95353.59;;;23.82;58.98
79577;BME280;69045;48.136;11.386;2023-06-22T03:17:05;95347.78;;;23.80;59.28
79577;BME280;69045;48.136;11.386;2023-06-22T03:19:33;95344.88;;;23.77;59.55
79577;BME280;69045;48.136;11.386;2023-06-22T03:22:02;95341.25;;;23.73;59.68
79577;BME280;69045;48.136;11.386;2023-06-22T03:24:30;95349.56;;;23.71;59.47
79577;BME280;69045;48.136;11.386;2023-06-22T03:26:58;95343.41;;;23.70;59.77
79577;BME280;69045;48.136;11.386;2023-06-22T03:29:27;95335.09;;;23.72;59.91
79577;BME280;69045;48.136;11.386;2023-06-22T03:31:57;95340.94;;;23.74;59.79
79577;BME280;69045;48.136;11.386;2023-06-22T03:34:28;95349.44;;;23.76;60.01
79577;BME280;69045;48.136;11.386;2023-06-22T03:37:01;95355.19;;;23.83;59.81
79577;BME280;69045;48.136;11.386;2023-06-22T03:39:31;95355.19;;;23.83;59.66
79577;BME280;69045;48.136;11.386;2023-06-22T03:41:59;95360.94;;;23.77;60.23
79577;BME280;69045;48.136;11.386;2023-06-22T03:44:27;95365.63;;;23.71;60.13
79577;BME280;69045;48.136;11.386;2023-06-22T03:46:55;95351.63;;;23.74;60.22
79577;BME280;69045;48.136;11.386;2023-06-22T03:49:23;95357.06;;;23.83;59.76
79577;BME280;69045;48.136;11.386;2023-06-22T03:51:53;95356.75;;;23.84;59.99
79577;BME280;69045;48.136;11.386;2023-06-22T03:54:22;95356.47;;;23.86;59.79
79577;BME280;69045;48.136;11.386;2023-06-22T03:56:50;95345.84;;;23.94;59.53
79577;BME280;69045;48.136;11.386;2023-06-22T03:59:18;95361.41;;;24.06;59.32
79577;BME280;69045;48.136;11.386;2023-06-22T04:01:46;95358.53;;;24.03;59.29
79577;BME280;69045;48.136;11.386;2023-06-22T04:04:14;95360.41;;;24.02;59.33
79577;BME280;69045;48.136;11.386;2023-06-22T04:06:42;95377.25;;;24.03;59.44
79577;BME280;69045;48.136;11.386;2023-06-22T04:09:12;95373.91;;;23.97;59.75
79577;BME280;69045;48.136;11.386;2023-06-22T04:11:40;95368.84;;;23.95;59.74
79577;BME280;69045;48.136;11.386;2023-06-22T04:14:08;95373.22;;;23.91;59.91
79577;BME280;69045;48.136;11.386;2023-06-22T04:16:36;95362.00;;;23.89;60.08
79577;BME280;69045;48.136;11.386;2023-06-22T04:19:05;95358.44;;;23.94;60.32
79577;BME280;69045;48.136;11.386;2023-06-22T04:21:33;95361.44;;;23.92;60.51
79577;BME280;69045;48.136;11.386;2023-06-22T04:24:01;95357.44;;;23.90;60.56
79577;BME280;69045;48.136;11.386;2023-06-22T04:26:31;95360.13;;;23.90;60.35
79577;BME280;69045;48.136;11.386;2023-06-22T04:29:03;95367.88;;;23.91;60.56
79577;BME280;69045;48.136;11.386;2023-06-22T04:31:32;95362.91;;;23.99;60.30
79577;BME280;69045;48.136;11.386;2023-06-22T04:34:05;95360.31;;;24.07;60.10
79577;BME280;69045;48.136;11.386;2023-06-22T04:36:34;95358.69;;;24.20;59.46
79577;BME280;69045;48.136;11.386;2023-06-22T04:39:05;95365.22;;;24.28;59.25
79577;BME280;69045;48.136;11.386;2023-06-22T04:41:37;95355.38;;;24.37;59.36
79577;BME280;69045;48.136;11.386;2023-06-22T04:44:10;95357.06;;;24.46;59.28
79577;BME280;69045;48.136;11.386;2023-06-22T04:46:38;95348.81;;;24.43;59.18
79577;BME280;69045;48.136;11.386;2023-06-22T04:49:08;95350.03;;;24.37;59.22
79577;BME280;69045;48.136;11.386;2023-06-22T04:51:39;95346.78;;;24.26;60.02
79577;BME280;69045;48.136;11.386;2023-06-22T04:54:09;95344.75;;;24.32;59.69
79577;BME280;69045;48.136;11.386;2023-06-22T04:56:38;95355.72;;;24.21;59.96
79577;BME280;69045;48.136;11.386;2023-06-22T04:59:07;95359.88;;;24.28;59.97
79577;BME280;69045;48.136;11.386;2023-06-22T05:01:39;95362.16;;;24.20;60.36
79577;BME280;69045;48.136;11.386;2023-06-22T05:04:08;95347.41;;;24.09;60.66
79577;BME280;69045;48.136;11.386;2023-06-22T05:06:36;95347.66;;;23.99;61.09
79577;BME280;69045;48.136;11.386;2023-06-22T05:09:06;95349.72;;;24.02;61.70
79577;BME280;69045;48.136;11.386;2023-06-22T05:11:35;95338.19;;;24.15;61.44
79577;BME280;69045;48.136;11.386;2023-06-22T05:14:04;95328.91;;;24.35;61.06
79577;BME280;69045;48.136;11.386;2023-06-22T05:16:32;95337.09;;;24.53;60.51
79577;BME280;69045;48.136;11.386;2023-06-22T05:19:01;95339.03;;;24.61;60.11
79577;BME280;69045;48.136;11.386;2023-06-22T05:21:31;95328.13;;;24.57;60.34
79577;BME280;69045;48.136;11.386;2023-06-22T05:24:00;95329.06;;;24.53;60.84
79577;BME280;69045;48.136;11.386;2023-06-22T05:26:30;95334.00;;;24.59;60.87
79577;BME280;69045;48.136;11.386;2023-06-22T05:29:02;95331.53;;;24.71;60.44
79577;BME280;69045;48.136;11.386;2023-06-22T05:31:31;95341.59;;;24.88;59.95
79577;BME280;69045;48.136;11.386;2023-06-22T05:34:02;95328.41;;;25.00;59.73
79577;BME280;69045;48.136;11.386;2023-06-22T05:36:30;95339.06;;;25.14;58.95
79577;BME280;69045;48.136;11.386;2023-06-22T05:38:58;95328.84;;;25.25;58.70
79577;BME280;69045;48.136;11.386;2023-06-22T05:41:26;95330.16;;;25.36;58.45
79577;BME280;69045;48.136;11.386;2023-06-22T05:43:54;95322.00;;;25.50;57.78
79577;BME280;69045;48.136;11.386;2023-06-22T05:46:23;95315.88;;;25.58;58.06
79577;BME280;69045;48.136;11.386;2023-06-22T05:48:54;95314.94;;;25.63;57.54
79577;BME280;69045;48.136;11.386;2023-06-22T05:51:24;95318.44;;;25.72;57.18
79577;BME280;69045;48.136;11.386;2023-06-22T05:53:54;95321.81;;;25.86;56.86
79577;BME280;69045;48.136;11.386;2023-06-22T05:56:23;95335.88;;;26.00;56.69
79577;BME280;69045;48.136;11.386;2023-06-22T05:58:51;95342.88;;;26.19;56.09
79577;BME280;69045;48.136;11.386;2023-06-22T06:01:20;95348.41;;;26.31;55.64
79577;BME280;69045;48.136;11.386;2023-06-22T06:03:48;95339.75;;;26.51;55.19
79577;BME280;69045;48.136;11.386;2023-06-22T06:06:20;95337.69;;;26.57;55.44
79577;BME280;69045;48.136;11.386;2023-06-22T06:08:50;95341.00;;;26.71;55.51
79577;BME280;69045;48.136;11.386;2023-06-22T06:11:18;95340.81;;;26.85;54.50
79577;BME280;69045;48.136;11.386;2023-06-22T06:13:46;95339.38;;;26.96;54.05
79577;BME280;69045;48.136;11.386;2023-06-22T06:16:15;95331.28;;;27.13;53.52
79577;BME280;69045;48.136;11.386;2023-06-22T06:18:44;95327.25;;;27.28;53.53
79577;BME280;69045;48.136;11.386;2023-06-22T06:21:12;95325.63;;;27.44;52.67
79577;BME280;69045;48.136;11.386;2023-06-22T06:23:42;95310.81;;;27.59;52.04
79577;BME280;69045;48.136;11.386;2023-06-22T06:26:10;95314.13;;;27.65;52.19
79577;BME280;69045;48.136;11.386;2023-06-22T06:28:38;95310.63;;;27.73;52.23
79577;BME280;69045;48.136;11.386;2023-06-22T06:31:09;95318.00;;;27.85;51.58
79577;BME280;69045;48.136;11.386;2023-06-22T06:33:39;95326.13;;;27.97;51.07
79577;BME280;69045;48.136;11.386;2023-06-22T06:36:07;95313.16;;;27.99;51.27
79577;BME280;69045;48.136;11.386;2023-06-22T06:38:35;95324.56;;;27.96;51.16
79577;BME280;69045;48.136;11.386;2023-06-22T06:41:06;95316.66;;;27.91;51.33
79577;BME280;69045;48.136;11.386;2023-06-22T06:43:34;95319.66;;;27.98;51.39
79577;BME280;69045;48.136;11.386;2023-06-22T06:46:02;95321.84;;;28.05;51.36
79577;BME280;69045;48.136;11.386;2023-06-22T06:48:31;95311.84;;;28.05;51.34
79577;BME280;69045;48.136;11.386;2023-06-22T06:50:59;95307.00;;;28.19;51.02
79577;BME280;69045;48.136;11.386;2023-06-22T06:53:28;95302.75;;;28.39;50.60
79577;BME280;69045;48.136;11.386;2023-06-22T06:55:56;95302.72;;;28.60;49.56
79577;BME280;69045;48.136;11.386;2023-06-22T06:58:26;95304.78;;;28.75;48.92
79577;BME280;69045;48.136;11.386;2023-06-22T07:00:55;95309.72;;;28.86;48.73
79577;BME280;69045;48.136;11.386;2023-06-22T07:03:23;95310.63;;;29.10;48.29
79577;BME280;69045;48.136;11.386;2023-06-22T07:05:54;95308.94;;;29.30;48.06
79577;BME280;69045;48.136;11.386;2023-06-22T07:08:22;95320.94;;;29.54;47.41
79577;BME280;69045;48.136;11.386;2023-06-22T07:10:51;95314.28;;;29.76;46.33
79577;BME280;69045;48.136;11.386;2023-06-22T07:13:20;95316.72;;;29.93;46.07
79577;BME280;69045;48.136;11.386;2023-06-22T07:15:50;95313.47;;;30.12;45.98
79577;BME280;69045;48.136;11.386;2023-06-22T07:18:19;95309.25;;;30.27;45.33
79577;BME280;69045;48.136;11.386;2023-06-22T07:20:47;95309.19;;;30.51;44.98
79577;BME280;69045;48.136;11.386;2023-06-22T07:23:16;95308.56;;;30.70;44.50
79577;BME280;69045;48.136;11.386;2023-06-22T07:25:48;95303.09;;;30.82;43.93
79577;BME280;69045;48.136;11.386;2023-06-22T07:28:20;95298.06;;;30.96;43.70
79577;BME280;69045;48.136;11.386;2023-06-22T07:30:50;95295.50;;;30.88;43.78
79577;BME280;69045;48.136;11.386;2023-06-22T07:33:19;95294.75;;;31.03;43.35
79577;BME280;69045;48.136;11.386;2023-06-22T07:35:47;95290.03;;;31.16;42.75
79577;BME280;69045;48.136;11.386;2023-06-22T07:38:18;95289.38;;;31.35;43.00
79577;BME280;69045;48.136;11.386;2023-06-22T07:40:47;95287.78;;;31.49;42.54
79577;BME280;69045;48.136;11.386;2023-06-22T07:43:15;95288.13;;;31.64;42.21
79577;BME280;69045;48.136;11.386;2023-06-22T07:45:49;95289.44;;;31.86;41.85
79577;BME280;69045;48.136;11.386;2023-06-22T07:48:20;95292.97;;;32.05;40.46
79577;BME280;69045;48.136;11.386;2023-06-22T07:50:50;95282.25;;;32.13;40.05
79577;BME280;69045;48.136;11.386;2023-06-22T07:53:20;95283.53;;;31.99;39.97
79577;BME280;69045;48.136;11.386;2023-06-22T07:55:48;95287.38;;;31.98;40.65
79577;BME280;69045;48.136;11.386;2023-06-22T07:58:17;95277.97;;;32.12;40.98
79577;BME280;69045;48.136;11.386;2023-06-22T08:00:47;95275.97;;;32.28;40.20
79577;BME280;69045;48.136;11.386;2023-06-22T08:03:19;95280.44;;;32.36;39.82
79577;BME280;69045;48.136;11.386;2023-06-22T08:05:47;95281.16;;;32.33;40.39
79577;BME280;69045;48.136;11.386;2023-06-22T08:08:15;95277.03;;;32.39;40.06
79577;BME280;69045;48.136;11.386;2023-06-22T08:10:44;95276.00;;;32.47;39.65
79577;BME280;69045;48.136;11.386;2023-06-22T08:13:12;95284.56;;;32.69;39.04
79577;BME280;69045;48.136;11.386;2023-06-22T08:15:40;95278.06;;;32.93;38.76
79577;BME280;69045;48.136;11.386;2023-06-22T08:18:08;95275.59;;;33.07;38.33
79577;BME280;69045;48.136;11.386;2023-06-22T08:20:38;95267.38;;;33.26;37.99
79577;BME280;69045;48.136;11.386;2023-06-22T08:23:06;95278.41;;;33.37;38.32
79577;BME280;69045;48.136;11.386;2023-06-22T08:25:35;95271.25;;;33.48;37.92
79577;BME280;69045;48.136;11.386;2023-06-22T08:28:07;95267.00;;;33.51;36.94
79577;BME280;69045;48.136;11.386;2023-06-22T08:30:35;95270.41;;;33.44;37.53
79577;BME280;69045;48.136;11.386;2023-06-22T08:33:04;95276.19;;;33.43;37.64
79577;BME280;69045;48.136;11.386;2023-06-22T08:35:32;95270.88;;;33.50;37.72
79577;BME280;69045;48.136;11.386;2023-06-22T08:38:04;95278.66;;;33.51;37.90
79577;BME280;69045;48.136;11.386;2023-06-22T08:40:32;95267.91;;;33.58;37.94
79577;BME280;69045;48.136;11.386;2023-06-22T08:43:01;95268.84;;;33.70;36.83
79577;BME280;69045;48.136;11.386;2023-06-22T08:45:30;95267.47;;;33.83;36.72
79577;BME280;69045;48.136;11.386;2023-06-22T08:47:59;95268.88;;;33.96;37.22
79577;BME280;69045;48.136;11.386;2023-06-22T08:50:28;95270.91;;;34.03;36.73
79577;BME280;69045;48.136;11.386;2023-06-22T08:52:57;95267.06;;;34.07;36.29
79577;BME280;69045;48.136;11.386;2023-06-22T08:55:30;95264.09;;;34.19;36.71
79577;BME280;69045;48.136;11.386;2023-06-22T08:57:59;95242.00;;;34.21;36.73
79577;BME280;69045;48.136;11.386;2023-06-22T09:00:28;95256.94;;;34.38;36.68
79577;BME280;69045;48.136;11.386;2023-06-22T09:03:01;95263.16;;;34.68;36.23
79577;BME280;69045;48.136;11.386;2023-06-22T09:05:30;95257.25;;;34.96;35.77
79577;BME280;69045;48.136;11.386;2023-06-22T09:07:59;95258.94;;;35.12;34.56
79577;BME280;69045;48.136;11.386;2023-06-22T09:10:29;95263.66;;;35.18;35.17
79577;BME280;69045;48.136;11.386;2023-06-22T09:12:58;95258.59;;;35.20;35.08
79577;BME280;69045;48.136;11.386;2023-06-22T09:15:26;95261.06;;;35.33;34.71
79577;BME280;69045;48.136;11.386;2023-06-22T09:17:56;95260.41;;;35.46;34.17
79577;BME280;69045;48.136;11.386;2023-06-22T09:20:25;95257.53;;;35.32;34.25
79577;BME280;69045;48.136;11.386;2023-06-22T09:22:56;95263.50;;;35.45;34.16
79577;BME280;69045;48.136;11.386;2023-06-22T09:25:26;95259.72;;;35.60;34.00
79577;BME280;69045;48.136;11.386;2023-06-22T09:27:56;95252.38;;;35.68;33.40
79577;BME280;69045;48.136;11.386;2023-06-22T09:30:25;95256.34;;;35.81;33.05
79577;BME280;69045;48.136;11.386;2023-06-22T09:32:54;95247.81;;;35.90;32.75
79577;BME280;69045;48.136;11.386;2023-06-22T09:35:23;95252.97;;;35.98;33.34
79577;BME280;69045;48.136;11.386;2023-06-22T09:37:52;95254.22;;;36.12;32.96
79577;BME280;69045;48.136;11.386;2023-06-22T09:40:22;95250.78;;;36.25;32.49
79577;BME280;69045;48.136;11.386;2023-06-22T09:43:09;95251.94;;;36.28;31.78
79577;BME280;69045;48.136;11.386;2023-06-22T09:45:38;95255.03;;;36.23;32.63
79577;BME280;69045;48.136;11.386;2023-06-22T09:48:08;95242.28;;;36.41;33.07
79577;BME280;69045;48.136;11.386;2023-06-22T09:50:39;95241.91;;;36.57;31.61
79577;BME280;69045;48.136;11.386;2023-06-22T09:53:07;95239.97;;;36.64;30.53
79577;BME280;69045;48.136;11.386;2023-06-22T09:55:36;95237.66;;;36.63;30.97
79577;BME280;69045;48.136;11.386;2023-06-22T09:58:04;95227.94;;;36.73;31.85
79577;BME280;69045;48.136;11.386;2023-06-22T10:00:35;95221.69;;;36.83;31.93
79577;BME280;69045;48.136;11.386;2023-06-22T10:03:08;95218.63;;;36.88;31.90
79577;BME280;69045;48.136;11.386;2023-06-22T10:05:36;95220.56;;;37.16;31.25
79577;BME280;69045;48.136;11.386;2023-06-22T10:08:07;95218.63;;;37.38;31.25
79577;BME280;69045;48.136;11.386;2023-06-22T10:10:38;95226.44;;;37.50;30.32
79577;BME280;69045;48.136;11.386;2023-06-22T10:13:08;95217.03;;;37.69;30.29
79577;BME280;69045;48.136;11.386;2023-06-22T10:15:39;95220.53;;;37.84;29.62
79577;BME280;69045;48.136;11.386;2023-06-22T10:18:07;95227.16;;;37.93;30.27
79577;BME280;69045;48.136;11.386;2023-06-22T10:20:37;95216.19;;;38.04;30.09
79577;BME280;69045;48.136;11.386;2023-06-22T10:23:05;95219.69;;;38.05;30.03
79577;BME280;69045;48.136;11.386;2023-06-22T10:25:36;95218.47;;;38.16;29.94
79577;BME280;69045;48.136;11.386;2023-06-22T10:28:04;95216.91;;;38.26;29.61
79577;BME280;69045;48.136;11.386;2023-06-22T10:30:32;95214.94;;;38.27;29.80
79577;BME280;69045;48.136;11.386;2023-06-22T10:33:05;95214.94;;;38.23;28.80
79577;BME280;69045;48.136;11.386;2023-06-22T10:35:34;95213.41;;;38.15;28.27
79577;BME280;69045;48.136;11.386;2023-06-22T10:38:02;95202.81;;;38.20;28.96
79577;BME280;69045;48.136;11.386;2023-06-22T10:40:31;95211.00;;;38.24;28.65
79577;BME280;69045;48.136;11.386;2023-06-22T10:43:03;95195.44;;;38.07;29.27
79577;BME280;69045;48.136;11.386;2023-06-22T10:45:32;95191.88;;;38.13;29.25
79577;BME280;69045;48.136;11.386;2023-06-22T10:48:01;95192.25;;;38.19;28.97
79577;BME280;69045;48.136;11.386;2023-06-22T10:50:32;95195.00;;;38.19;28.86
79577;BME280;69045;48.136;11.386;2023-06-22T10:53:00;95187.63;;;38.09;28.56
79577;BME280;69045;48.136;11.386;2023-06-22T10:55:29;95182.59;;;37.93;28.92
79577;BME280;69045;48.136;11.386;2023-06-22T10:58:17;95182.25;;;37.84;29.65
79577;BME280;69045;48.136;11.386;2023-06-22T11:00:46;95182.25;;;37.69;29.25
79577;BME280;69045;48.136;11.386;2023-06-22T11:03:14;95181.13;;;37.60;30.20
79577;BME280;69045;48.136;11.386;2023-06-22T11:05:44;95181.88;;;37.64;30.45
79577;BME280;69045;48.136;11.386;2023-06-22T11:08:13;95183.03;;;37.66;30.06
79577;BME280;69045;48.136;11.386;2023-06-22T11:10:43;95192.00;;;37.78;30.22
79577;BME280;69045;48.136;11.386;2023-06-22T11:13:13;95174.44;;;37.82;30.27
79577;BME280;69045;48.136;11.386;2023-06-22T11:15:41;95187.31;;;37.78;30.01
79577;BME280;69045;48.136;11.386;2023-06-22T11:18:09;95178.28;;;37.92;30.07
79577;BME280;69045;48.136;11.386;2023-06-22T11:20:39;95184.16;;;37.97;29.45
79577;BME280;69045;48.136;11.386;2023-06-22T11:23:10;95177.09;;;38.07;30.14
79577;BME280;69045;48.136;11.386;2023-06-22T11:25:40;95175.41;;;38.31;29.59
79577;BME280;69045;48.136;11.386;2023-06-22T11:28:09;95162.81;;;38.44;29.61
79577;BME280;69045;48.136;11.386;2023-06-22T11:30:37;95165.09;;;38.57;29.49
79577;BME280;69045;48.136;11.386;2023-06-22T11:33:05;95158.75;;;38.67;29.38
79577;BME280;69045;48.136;11.386;2023-06-22T11:35:34;95156.81;;;38.71;29.00
79577;BME280;69045;48.136;11.386;2023-06-22T11:38:02;95149.56;;;38.95;29.17
79577;BME280;69045;48.136;11.386;2023-06-22T11:40:33;95156.56;;;39.03;29.46
79577;BME280;69045;48.136;11.386;2023-06-22T11:43:01;95150.69;;;39.04;28.90
79577;BME280;69045;48.136;11.386;2023-06-22T11:45:29;95145.31;;;38.90;29.08
79577;BME280;69045;48.136;11.386;2023-06-22T11:47:58;95144.94;;;38.88;29.38
79577;BME280;69045;48.136;11.386;2023-06-22T11:50:26;95142.16;;;38.92;29.41
79577;BME280;69045;48.136;11.386;2023-06-22T11:52:58;95143.00;;;38.82;28.86
79577;BME280;69045;48.136;11.386;2023-06-22T11:55:26;95137.16;;;38.83;28.91
79577;BME280;69045;48.136;11.386;2023-06-22T11:57:57;95136.44;;;38.75;29.19
79577;BME280;69045;48.136;11.386;2023-06-22T12:00:29;95135.25;;;38.73;29.16
79577;BME280;69045;48.136;11.386;2023-06-22T12:03:12;95143.50;;;38.69;29.01
79577;BME280;69045;48.136;11.386;2023-06-22T12:05:43;95134.56;;;38.58;28.96
79577;BME280;69045;48.136;11.386;2023-06-22T12:08:13;95129.91;;;38.51;28.92
79577;BME280;69045;48.136;11.386;2023-06-22T12:10:41;95130.28;;;38.57;29.46
79577;BME280;69045;48.136;11.386;2023-06-22T12:13:11;95125.53;;;38.65;29.28
79577;BME280;69045;48.136;11.386;2023-06-22T12:15:39;95120.44;;;38.63;29.18
79577;BME280;69045;48.136;11.386;2023-06-22T12:18:07;95109.09;;;38.65;29.32
79577;BME280;69045;48.136;11.386;2023-06-22T12:20:36;95115.34;;;38.65;29.68
79577;BME280;69045;48.136;11.386;2023-06-22T12:23:06;95113.06;;;38.53;29.59
79577;BME280;69045;48.136;11.386;2023-06-22T12:25:37;95109.25;;;38.43;29.75
79577;BME280;69045;48.136;11.386;2023-06-22T12:28:05;95108.06;;;38.41;29.96
79577;BME280;69045;48.136;11.386;2023-06-22T12:30:34;95102.16;;;38.46;30.14
79577;BME280;69045;48.136;11.386;2023-06-22T12:33:03;95104.13;;;38.45;29.89
79577;BME280;69045;48.136;11.386;2023-06-22T12:35:32;95093.28;;;38.31;30.13
79577;BME280;69045;48.136;11.386;2023-06-22T12:38:00;95094.13;;;38.17;30.46
79577;BME280;69045;48.136;11.386;2023-06-22T12:40:29;95097.72;;;38.04;30.44
79577;BME280;69045;48.136;11.386;2023-06-22T12:42:58;95086.88;;;37.82;30.51
79577;BME280;69045;48.136;11.386;2023-06-22T12:45:26;95087.72;;;37.61;30.54
79577;BME280;69045;48.136;11.386;2023-06-22T12:47:59;95086.97;;;37.61;31.12
79577;BME280;69045;48.136;11.386;2023-06-22T12:50:28;95083.81;;;37.62;30.63
79577;BME280;69045;48.136;11.386;2023-06-22T12:52:57;95081.47;;;37.61;30.78
79577;BME280;69045;48.136;11.386;2023-06-22T12:55:25;95079.56;;;37.54;30.78
79577;BME280;69045;48.136;11.386;2023-06-22T12:57:53;95082.69;;;37.46;31.32
79577;BME280;69045;48.136;11.386;2023-06-22T13:00:22;95074.91;;;37.37;30.94
79577;BME280;69045;48.136;11.386;2023-06-22T13:02:52;95077.69;;;37.19;31.35